createdAt,value
2022-10-13T00:01:59.051Z,69.79
2022-10-13T00:05:04.644Z,70.67
2022-10-13T00:08:10.341Z,70.80
2022-10-13T00:11:36.416Z,71.42
2022-10-13T00:14:43.035Z,71.41
2022-10-13T00:17:51.427Z,71.80
2022-10-13T00:21:00.589Z,71.75
2022-10-13T00:24:06.337Z,71.42
2022-10-13T00:27:16.158Z,71.55
2022-10-13T00:30:22.034Z,71.89
2022-10-13T00:33:32.401Z,72.38
2022-10-13T00:36:38.099Z,72.69
2022-10-13T00:39:43.854Z,73.68
2022-10-13T00:42:52.067Z,74.78
2022-10-13T00:45:58.252Z,75.13
2022-10-13T00:49:12.802Z,75.03
2022-10-13T00:52:28.662Z,74.88
2022-10-13T00:55:46.547Z,75.46
2022-10-13T00:58:59.803Z,75.21
2022-10-13T01:02:12.197Z,75.00
2022-10-13T01:05:20.200Z,75.20
2022-10-13T01:08:27.597Z,75.37
2022-10-13T01:12:08.491Z,75.56
2022-10-13T01:15:32.372Z,75.92
2022-10-13T01:18:52.886Z,75.93
2022-10-13T01:22:34.199Z,76.21
2022-10-13T01:26:12.629Z,76.04
2022-10-13T01:30:07.799Z,76.27
2022-10-13T01:33:38.482Z,75.91
2022-10-13T01:37:01.961Z,75.93
2022-10-13T01:40:19.648Z,75.74
2022-10-13T01:43:36.707Z,75.85
2022-10-13T01:46:50.251Z,75.68
2022-10-13T01:49:59.110Z,76.02
2022-10-13T01:53:08.323Z,76.71
2022-10-13T01:56:14.246Z,77.87
2022-10-13T01:59:20.528Z,77.72
2022-10-13T02:02:40.275Z,78.08
2022-10-13T02:06:08.791Z,79.20
2022-10-13T02:09:30.135Z,80.13
2022-10-13T02:12:47.198Z,80.01
2022-10-13T02:15:59.681Z,79.77
2022-10-13T02:19:16.103Z,80.35
2022-10-13T02:22:29.321Z,79.91
2022-10-13T02:25:40.432Z,80.65
2022-10-13T02:28:49.394Z,81.01
2022-10-13T02:31:55.575Z,81.00
2022-10-13T02:35:03.800Z,81.01
2022-10-13T02:38:09.976Z,81.13
2022-10-13T02:41:15.481Z,81.15
2022-10-13T02:44:21.202Z,81.09
2022-10-13T02:47:34.933Z,81.66
2022-10-13T02:50:45.249Z,80.39
2022-10-13T02:53:50.812Z,80.66
2022-10-13T02:56:56.311Z,80.65
2022-10-13T03:00:02.150Z,80.56
2022-10-13T03:03:07.788Z,80.44
2022-10-13T03:06:16.578Z,80.56
2022-10-13T03:09:22.279Z,80.95
2022-10-13T03:12:40.725Z,81.05
2022-10-13T03:15:46.481Z,80.89
2022-10-13T03:18:52.213Z,80.92
2022-10-13T03:22:03.047Z,80.33
2022-10-13T03:25:16.604Z,80.26
2022-10-13T03:28:31.566Z,79.91
2022-10-13T03:31:37.220Z,79.75
2022-10-13T03:34:42.811Z,79.07
2022-10-13T03:37:53.219Z,79.22
2022-10-13T03:41:08.100Z,78.48
2022-10-13T03:44:16.209Z,78.14
2022-10-13T03:47:21.749Z,78.41
2022-10-13T03:50:33.497Z,78.78
2022-10-13T03:53:43.258Z,78.79
2022-10-13T03:56:48.789Z,79.63
2022-10-13T03:59:58.355Z,80.27
2022-10-13T04:03:05.604Z,81.40
2022-10-13T04:06:12.693Z,81.64
2022-10-13T04:09:20.839Z,81.64
2022-10-13T04:12:27.005Z,81.22
2022-10-13T04:15:32.895Z,81.71
2022-10-13T04:18:43.670Z,82.38
2022-10-13T04:21:50.402Z,82.22
2022-10-13T04:24:58.581Z,82.53
2022-10-13T04:28:05.879Z,82.48
2022-10-13T04:31:15.556Z,81.78
2022-10-13T04:34:21.230Z,81.86
2022-10-13T04:37:30.671Z,81.97
2022-10-13T04:40:45.480Z,82.49
2022-10-13T04:43:53.009Z,83.16
2022-10-13T04:46:58.718Z,82.59
2022-10-13T04:50:16.616Z,82.74
2022-10-13T04:53:37.656Z,82.75
2022-10-13T04:56:54.497Z,82.88
2022-10-13T05:00:02.980Z,82.54
2022-10-13T05:03:09.814Z,82.33
2022-10-13T05:06:20.643Z,82.38
2022-10-13T05:09:27.996Z,82.51
2022-10-13T05:12:36.421Z,82.47
2022-10-13T05:15:42.511Z,82.73
2022-10-13T05:18:53.452Z,82.93
2022-10-13T05:21:58.997Z,82.81
2022-10-13T05:25:08.313Z,83.15
2022-10-13T05:28:17.006Z,82.40
2022-10-13T05:31:26.532Z,81.54
2022-10-13T05:34:32.796Z,81.24
2022-10-13T05:37:42.709Z,80.66
2022-10-13T05:40:48.838Z,80.49
2022-10-13T05:44:01.083Z,80.40
2022-10-13T05:47:07.731Z,80.57
2022-10-13T05:50:13.789Z,80.38
2022-10-13T05:53:20.821Z,80.85
2022-10-13T05:56:35.561Z,80.78
2022-10-13T05:59:52.594Z,80.59
2022-10-13T06:03:11.862Z,79.86
2022-10-13T06:06:22.360Z,80.14
2022-10-13T06:09:42.740Z,79.94
2022-10-13T06:12:51.077Z,79.91
2022-10-13T06:15:59.317Z,79.93
2022-10-13T06:19:16.161Z,78.61
2022-10-13T06:22:22.578Z,77.54
2022-10-13T06:25:32.418Z,76.74
2022-10-13T06:28:38.812Z,75.33
2022-10-13T06:31:47.013Z,74.23
2022-10-13T06:34:52.990Z,71.53
2022-10-13T06:38:00.139Z,71.26
2022-10-13T06:41:08.724Z,69.14
2022-10-13T06:44:15.213Z,68.00
2022-10-13T06:47:23.614Z,65.17
2022-10-13T06:50:29.778Z,64.77
2022-10-13T06:53:36.285Z,63.76
2022-10-13T06:56:41.904Z,63.27
2022-10-13T06:59:49.264Z,63.47
2022-10-13T07:02:57.605Z,62.56
2022-10-13T07:06:07.636Z,62.01
2022-10-13T07:09:13.519Z,61.48
2022-10-13T07:12:19.794Z,61.26
2022-10-13T07:15:26.102Z,60.33
2022-10-13T07:18:34.779Z,60.14
2022-10-13T07:21:40.366Z,61.20
2022-10-13T07:24:46.426Z,61.63
2022-10-13T07:27:51.993Z,61.82
2022-10-13T07:30:57.824Z,61.52
2022-10-13T07:34:06.887Z,59.79
2022-10-13T07:37:12.464Z,60.99
2022-10-13T07:40:18.049Z,60.70
2022-10-13T07:43:23.693Z,62.02
2022-10-13T07:46:29.890Z,61.96
2022-10-13T07:49:38.898Z,57.58
2022-10-13T07:52:45.127Z,56.44
2022-10-13T07:55:51.071Z,59.07
2022-10-13T07:58:57.604Z,59.44
2022-10-13T08:02:03.691Z,57.09
2022-10-13T08:05:12.504Z,55.31
2022-10-13T08:08:18.172Z,53.04
2022-10-13T08:11:23.855Z,53.57
2022-10-13T08:14:29.532Z,50.88
2022-10-13T08:17:35.556Z,52.36
2022-10-13T08:20:48.855Z,55.09
2022-10-13T08:23:56.670Z,52.02
2022-10-13T08:27:02.270Z,49.97
2022-10-13T08:30:09.679Z,48.67
2022-10-13T08:33:15.741Z,46.72
2022-10-13T08:36:28.782Z,46.69
2022-10-13T08:39:36.305Z,44.92
2022-10-13T08:42:46.883Z,48.34
2022-10-13T08:45:58.432Z,46.82
2022-10-13T08:49:07.901Z,44.60
2022-10-13T08:52:25.742Z,46.61
2022-10-13T08:55:39.377Z,44.21
2022-10-13T08:58:51.612Z,43.32
2022-10-13T09:02:00.317Z,45.15
2022-10-13T09:05:12.632Z,43.58
2022-10-13T09:08:25.746Z,43.80
2022-10-13T09:11:36.563Z,43.94
2022-10-13T09:14:44.998Z,43.25
2022-10-13T09:18:16.620Z,43.06
2022-10-13T09:21:26.538Z,40.67
2022-10-13T09:24:35.294Z,40.49
2022-10-13T09:27:48.191Z,37.83
2022-10-13T09:31:10.268Z,39.06
2022-10-13T09:34:30.438Z,38.45
2022-10-13T09:37:37.222Z,40.11
2022-10-13T09:40:47.083Z,38.55
2022-10-13T09:44:13.719Z,39.98
2022-10-13T09:47:26.766Z,38.95
2022-10-13T09:50:36.232Z,38.89
2022-10-13T09:53:44.332Z,39.74
2022-10-13T09:57:02.776Z,39.41
2022-10-13T10:00:20.201Z,36.78
2022-10-13T10:03:35.128Z,36.03
2022-10-13T10:06:44.072Z,35.80
2022-10-13T10:09:57.247Z,36.77
2022-10-13T10:13:14.218Z,35.89
2022-10-13T10:16:33.711Z,35.92
2022-10-13T10:20:02.651Z,35.33
2022-10-13T10:23:17.513Z,37.04
2022-10-13T10:26:33.087Z,35.85
2022-10-13T10:29:56.317Z,36.26
2022-10-13T10:33:12.217Z,37.47
2022-10-13T10:36:31.209Z,36.61
2022-10-13T10:39:49.607Z,35.24
2022-10-13T10:43:35.635Z,33.15
2022-10-13T10:46:50.279Z,33.82
2022-10-13T10:50:05.444Z,35.31
2022-10-13T10:53:25.953Z,34.80
2022-10-13T10:56:41.295Z,34.03
2022-10-13T11:00:14.197Z,35.24
2022-10-13T11:03:43.385Z,34.00
2022-10-13T11:06:49.120Z,37.13
2022-10-13T11:10:22.646Z,38.61
2022-10-13T11:13:28.787Z,40.00
2022-10-13T11:16:39.117Z,42.07
2022-10-13T11:19:56.105Z,41.04
2022-10-13T11:23:36.766Z,39.12
2022-10-13T11:26:46.921Z,37.60
2022-10-13T11:30:00.437Z,36.99
2022-10-13T11:33:27.063Z,38.19
2022-10-13T11:36:54.557Z,39.57
2022-10-13T11:40:36.587Z,41.33
2022-10-13T11:44:05.762Z,43.88
2022-10-13T11:47:43.216Z,46.48
2022-10-13T11:51:16.407Z,46.54
2022-10-13T11:54:39.631Z,45.03
2022-10-13T11:57:46.081Z,44.05
2022-10-13T12:01:04.509Z,45.17
2022-10-13T12:04:18.110Z,46.09
2022-10-13T12:07:39.974Z,44.82
2022-10-13T12:10:50.029Z,45.94
2022-10-13T12:13:57.558Z,45.98
2022-10-13T12:17:08.606Z,45.33
2022-10-13T12:20:33.809Z,46.08
2022-10-13T12:23:41.486Z,48.05
2022-10-13T12:26:52.005Z,47.99
2022-10-13T12:30:17.870Z,47.61
2022-10-13T12:33:37.950Z,46.09
2022-10-13T12:36:47.859Z,44.78
2022-10-13T12:39:54.896Z,44.27
2022-10-13T12:43:10.059Z,44.72
2022-10-13T12:46:16.389Z,45.83
2022-10-13T12:49:26.566Z,46.54
2022-10-13T12:52:32.336Z,46.51
2022-10-13T12:55:50.460Z,46.27
2022-10-13T12:58:59.768Z,45.37
2022-10-13T13:02:20.850Z,43.97
2022-10-13T13:05:35.968Z,44.16
2022-10-13T13:08:42.258Z,44.13
2022-10-13T13:11:48.113Z,44.24
2022-10-13T13:14:57.787Z,47.25
2022-10-13T13:18:42.661Z,47.94
2022-10-13T13:21:48.211Z,50.09
2022-10-13T13:24:55.020Z,50.02
2022-10-13T13:28:00.626Z,50.75
2022-10-13T13:31:14.580Z,51.58
2022-10-13T13:34:22.401Z,50.76
2022-10-13T13:37:38.310Z,51.89
2022-10-13T13:40:44.254Z,51.66
2022-10-13T13:43:51.434Z,50.36
2022-10-13T13:46:59.590Z,51.05
2022-10-13T13:50:20.784Z,51.37
2022-10-13T13:53:43.223Z,51.79
2022-10-13T13:56:53.321Z,51.52
2022-10-13T14:00:09.916Z,52.67
2022-10-13T14:03:25.708Z,51.98
2022-10-13T14:06:31.611Z,52.17
2022-10-13T14:09:37.227Z,52.37
2022-10-13T14:12:42.792Z,51.87
2022-10-13T14:15:48.544Z,51.52
2022-10-13T14:18:57.899Z,52.61
2022-10-13T14:22:09.329Z,53.14
2022-10-13T14:25:21.786Z,53.86
2022-10-13T14:28:29.351Z,54.32
2022-10-13T14:31:36.390Z,54.84
2022-10-13T14:34:44.563Z,54.39
2022-10-13T14:37:50.165Z,53.77
2022-10-13T14:40:55.921Z,54.54
2022-10-13T14:44:04.786Z,54.98
2022-10-13T14:47:10.915Z,56.06
2022-10-13T14:50:25.158Z,56.34
2022-10-13T14:53:42.345Z,56.89
2022-10-13T14:56:50.823Z,56.98
2022-10-13T15:00:00.901Z,57.54
2022-10-13T15:03:10.021Z,57.29
2022-10-13T15:06:22.693Z,57.19
2022-10-13T15:09:38.970Z,57.49
2022-10-13T15:12:55.146Z,57.77
2022-10-13T15:16:04.972Z,58.19
2022-10-13T15:19:10.813Z,58.70
2022-10-13T15:22:19.170Z,59.16
2022-10-13T15:25:30.264Z,58.85
2022-10-13T15:28:41.083Z,58.92
2022-10-13T15:31:48.703Z,58.53
2022-10-13T15:34:55.793Z,58.48
2022-10-13T15:38:04.077Z,58.37
2022-10-13T15:41:12.472Z,58.80
2022-10-13T15:44:21.225Z,59.18
2022-10-13T15:47:26.859Z,59.71
2022-10-13T15:50:32.822Z,59.33
2022-10-13T15:53:41.927Z,59.30
2022-10-13T15:56:48.244Z,59.40
2022-10-13T15:59:53.837Z,59.68
2022-10-13T16:02:59.516Z,60.18
2022-10-13T16:06:08.718Z,60.67
2022-10-13T16:09:17.080Z,60.42
2022-10-13T16:12:24.431Z,61.46
2022-10-13T16:15:30.667Z,62.31
2022-10-13T16:18:38.917Z,63.15
2022-10-13T16:21:46.854Z,63.73
2022-10-13T16:24:56.965Z,63.77
2022-10-13T16:28:02.920Z,64.85
2022-10-13T16:31:12.857Z,65.19
2022-10-13T16:34:20.923Z,65.21
2022-10-13T16:37:26.938Z,65.02
2022-10-13T16:40:35.459Z,64.80
2022-10-13T16:43:42.099Z,65.01
2022-10-13T16:46:49.719Z,65.19
2022-10-13T16:49:55.365Z,65.20
2022-10-13T16:53:02.876Z,65.21
2022-10-13T16:56:14.377Z,65.66
2022-10-13T16:59:20.197Z,64.92
2022-10-13T17:02:25.982Z,64.23
2022-10-13T17:05:31.843Z,63.56
2022-10-13T17:08:38.194Z,63.51
2022-10-13T17:11:46.631Z,64.79
2022-10-13T17:14:52.277Z,64.82
2022-10-13T17:17:58.019Z,66.29
2022-10-13T17:21:09.137Z,66.17
2022-10-13T17:24:15.721Z,66.17
2022-10-13T17:27:26.305Z,65.76
2022-10-13T17:30:32.043Z,65.72
2022-10-13T17:33:47.019Z,65.99
2022-10-13T17:36:56.257Z,65.84
2022-10-13T17:40:01.910Z,66.03
2022-10-13T17:43:10.389Z,66.12
2022-10-13T17:46:37.450Z,66.20
2022-10-13T17:49:44.578Z,65.74
2022-10-13T17:52:58.710Z,65.55
2022-10-13T17:56:04.865Z,65.87
2022-10-13T17:59:17.160Z,66.56
2022-10-13T18:02:23.025Z,65.77
2022-10-13T18:05:28.565Z,65.06
2022-10-13T18:08:36.141Z,64.80
2022-10-13T18:11:45.660Z,65.35
2022-10-13T18:15:00.006Z,66.03
2022-10-13T18:18:16.943Z,65.64
2022-10-13T18:21:26.933Z,65.47
2022-10-13T18:24:32.735Z,65.60
2022-10-13T18:27:38.310Z,65.96
2022-10-13T18:30:46.578Z,65.30
2022-10-13T18:33:53.462Z,65.53
2022-10-13T18:36:59.130Z,64.96
2022-10-13T18:40:04.991Z,65.48
2022-10-13T18:43:13.946Z,66.24
2022-10-13T18:46:22.671Z,66.06
2022-10-13T18:49:33.559Z,67.22
2022-10-13T18:52:39.288Z,67.45
2022-10-13T18:55:46.278Z,66.75
2022-10-13T18:58:58.477Z,66.36
2022-10-13T19:02:27.667Z,65.89
2022-10-13T19:05:33.291Z,65.48
2022-10-13T19:08:39.129Z,66.23
2022-10-13T19:11:45.069Z,66.54
2022-10-13T19:14:53.331Z,67.23
2022-10-13T19:18:04.863Z,68.36
2022-10-13T19:21:13.353Z,68.57
2022-10-13T19:24:18.942Z,68.73
2022-10-13T19:27:25.074Z,68.62
2022-10-13T19:30:30.736Z,68.24
2022-10-13T19:33:44.281Z,67.87
2022-10-13T19:36:50.999Z,67.95
2022-10-13T19:39:56.629Z,68.20
2022-10-13T19:43:10.005Z,68.45
2022-10-13T19:46:39.448Z,68.25
2022-10-13T19:49:47.759Z,68.17
2022-10-13T19:52:58.945Z,68.16
2022-10-13T19:56:21.366Z,67.04
2022-10-13T19:59:27.095Z,67.31
2022-10-13T20:02:32.687Z,67.69
2022-10-13T20:05:45.035Z,67.84
2022-10-13T20:08:51.028Z,68.74
2022-10-13T20:12:01.862Z,69.77
2022-10-13T20:15:09.648Z,70.91
2022-10-13T20:18:15.802Z,71.02
2022-10-13T20:21:27.529Z,72.07
2022-10-13T20:24:33.283Z,72.03
2022-10-13T20:27:39.698Z,72.13
2022-10-13T20:30:47.631Z,71.27
2022-10-13T20:33:58.598Z,71.89
2022-10-13T20:37:12.439Z,72.02
2022-10-13T20:40:18.370Z,72.04
2022-10-13T20:43:25.906Z,71.95
2022-10-13T20:46:31.805Z,72.45
2022-10-13T20:49:39.770Z,72.18
2022-10-13T20:52:48.037Z,71.68
2022-10-13T20:55:59.081Z,71.56
2022-10-13T20:59:06.149Z,71.43
2022-10-13T21:02:16.929Z,72.03
2022-10-13T21:05:22.498Z,72.49
2022-10-13T21:08:30.697Z,72.88
2022-10-13T21:11:37.798Z,72.53
2022-10-13T21:14:43.455Z,71.81
2022-10-13T21:17:49.629Z,71.86
2022-10-13T21:20:55.291Z,72.21
2022-10-13T21:24:07.895Z,72.46
2022-10-13T21:27:16.214Z,72.56
2022-10-13T21:30:22.371Z,72.46
2022-10-13T21:33:27.983Z,72.14
2022-10-13T21:36:36.887Z,72.19
2022-10-13T21:39:45.401Z,72.89
2022-10-13T21:42:51.211Z,73.98
2022-10-13T21:45:56.811Z,73.93
2022-10-13T21:49:05.584Z,74.01
2022-10-13T21:52:11.154Z,73.30
2022-10-13T21:55:19.448Z,73.15
2022-10-13T21:58:26.670Z,73.42
2022-10-13T22:01:32.507Z,74.53
2022-10-13T22:04:40.303Z,74.82
2022-10-13T22:07:45.869Z,74.29
2022-10-13T22:10:54.078Z,74.33
2022-10-13T22:14:00.788Z,74.90
2022-10-13T22:17:07.991Z,74.60
2022-10-13T22:20:13.561Z,75.03
2022-10-13T22:23:19.140Z,75.21
2022-10-13T22:26:27.824Z,74.67
2022-10-13T22:29:33.371Z,74.62
2022-10-13T22:32:38.959Z,75.12
2022-10-13T22:35:46.897Z,75.11
2022-10-13T22:38:58.249Z,74.45
2022-10-13T22:42:07.145Z,74.32
2022-10-13T22:45:13.953Z,74.68
2022-10-13T22:48:19.718Z,74.24
2022-10-13T22:51:28.688Z,73.62
2022-10-13T22:54:34.284Z,73.46
2022-10-13T22:57:42.750Z,73.27
2022-10-13T23:00:48.352Z,72.69
2022-10-13T23:03:58.186Z,72.29
2022-10-13T23:07:03.772Z,72.23
2022-10-13T23:10:11.399Z,72.81
2022-10-13T23:13:19.855Z,72.84
2022-10-13T23:16:31.514Z,73.79
2022-10-13T23:19:37.426Z,74.71
2022-10-13T23:22:45.285Z,74.52
2022-10-13T23:25:50.879Z,74.84
2022-10-13T23:29:01.645Z,76.15
2022-10-13T23:32:09.876Z,75.88
2022-10-13T23:35:15.601Z,76.21
2022-10-13T23:38:21.677Z,76.26
2022-10-13T23:41:27.588Z,76.81
2022-10-13T23:44:35.820Z,76.88
2022-10-13T23:47:41.412Z,76.71
2022-10-13T23:50:47.150Z,77.62
2022-10-13T23:53:53.326Z,77.89
2022-10-13T23:56:59.001Z,77.58
